sensor_id;sensor_type;location;lat;lon;timestamp;P1;durP1;ratioP1;P2;durP2;ratioP2
77146;SDS011;66121;52.584;9.694;2023-02-01T00:01:19;21.50;;;4.00;;
77146;SDS011;66121;52.584;9.694;2023-02-01T00:03:44;18.17;;;3.08;;
77146;SDS011;66121;52.584;9.694;2023-02-01T00:06:10;15.13;;;2.67;;
77146;SDS011;66121;52.584;9.694;2023-02-01T00:08:35;19.03;;;3.13;;
77146;SDS011;66121;52.584;9.694;2023-02-01T00:11:02;15.40;;;2.97;;
77146;SDS011;66121;52.584;9.694;2023-02-01T00:13:29;15.02;;;3.17;;
77146;SDS011;66121;52.584;9.694;2023-02-01T00:16:03;18.02;;;3.20;;
77146;SDS011;66121;52.584;9.694;2023-02-01T00:18:30;20.77;;;4.05;;
77146;SDS011;66121;52.584;9.694;2023-02-01T00:20:55;16.85;;;3.85;;
77146;SDS011;66121;52.584;9.694;2023-02-01T00:23:21;21.42;;;3.88;;
77146;SDS011;66121;52.584;9.694;2023-02-01T00:25:46;21.33;;;3.33;;
77146;SDS011;66121;52.584;9.694;2023-02-01T00:28:11;16.25;;;2.90;;
77146;SDS011;66121;52.584;9.694;2023-02-01T00:30:37;14.00;;;4.00;;
77146;SDS011;66121;52.584;9.694;2023-02-01T00:33:03;13.82;;;3.25;;
77146;SDS011;66121;52.584;9.694;2023-02-01T00:35:28;17.42;;;2.90;;
77146;SDS011;66121;52.584;9.694;2023-02-01T00:37:54;22.00;;;3.83;;
77146;SDS011;66121;52.584;9.694;2023-02-01T00:40:19;20.67;;;3.37;;
77146;SDS011;66121;52.584;9.694;2023-02-01T00:42:44;13.20;;;3.03;;
77146;SDS011;66121;52.584;9.694;2023-02-01T00:45:10;16.42;;;3.13;;
77146;SDS011;66121;52.584;9.694;2023-02-01T00:47:35;18.60;;;3.30;;
77146;SDS011;66121;52.584;9.694;2023-02-01T00:50:00;15.52;;;3.50;;
77146;SDS011;66121;52.584;9.694;2023-02-01T00:52:26;24.03;;;3.67;;
77146;SDS011;66121;52.584;9.694;2023-02-01T00:54:51;17.63;;;4.30;;
77146;SDS011;66121;52.584;9.694;2023-02-01T00:57:16;16.13;;;2.77;;
77146;SDS011;66121;52.584;9.694;2023-02-01T00:59:41;19.83;;;3.33;;
77146;SDS011;66121;52.584;9.694;2023-02-01T01:02:07;15.60;;;3.37;;
77146;SDS011;66121;52.584;9.694;2023-02-01T01:04:32;18.47;;;3.47;;
77146;SDS011;66121;52.584;9.694;2023-02-01T01:06:57;14.18;;;2.53;;
77146;SDS011;66121;52.584;9.694;2023-02-01T01:09:23;10.83;;;3.10;;
77146;SDS011;66121;52.584;9.694;2023-02-01T01:11:48;15.83;;;2.87;;
77146;SDS011;66121;52.584;9.694;2023-02-01T01:14:15;18.25;;;4.60;;
77146;SDS011;66121;52.584;9.694;2023-02-01T01:16:41;19.40;;;3.37;;
77146;SDS011;66121;52.584;9.694;2023-02-01T01:19:06;10.07;;;2.80;;
77146;SDS011;66121;52.584;9.694;2023-02-01T01:21:31;20.15;;;3.15;;
77146;SDS011;66121;52.584;9.694;2023-02-01T01:23:57;19.05;;;3.53;;
77146;SDS011;66121;52.584;9.694;2023-02-01T01:26:24;15.30;;;3.67;;
77146;SDS011;66121;52.584;9.694;2023-02-01T01:28:51;23.63;;;3.83;;
77146;SDS011;66121;52.584;9.694;2023-02-01T01:31:19;18.83;;;3.92;;
77146;SDS011;66121;52.584;9.694;2023-02-01T01:33:49;13.77;;;2.85;;
77146;SDS011;66121;52.584;9.694;2023-02-01T01:36:19;17.02;;;4.32;;
77146;SDS011;66121;52.584;9.694;2023-02-01T01:38:44;20.98;;;3.72;;
77146;SDS011;66121;52.584;9.694;2023-02-01T01:41:14;18.02;;;3.47;;
77146;SDS011;66121;52.584;9.694;2023-02-01T01:43:55;21.23;;;3.88;;
77146;SDS011;66121;52.584;9.694;2023-02-01T01:46:27;20.13;;;4.70;;
77146;SDS011;66121;52.584;9.694;2023-02-01T01:49:02;18.90;;;3.47;;
77146;SDS011;66121;52.584;9.694;2023-02-01T01:51:33;21.90;;;3.97;;
77146;SDS011;66121;52.584;9.694;2023-02-01T01:54:04;13.70;;;3.05;;
77146;SDS011;66121;52.584;9.694;2023-02-01T01:56:36;17.23;;;3.67;;
77146;SDS011;66121;52.584;9.694;2023-02-01T01:59:02;28.50;;;4.03;;
77146;SDS011;66121;52.584;9.694;2023-02-01T02:01:29;14.23;;;3.30;;
77146;SDS011;66121;52.584;9.694;2023-02-01T02:03:55;16.42;;;3.78;;
77146;SDS011;66121;52.584;9.694;2023-02-01T02:06:39;18.67;;;3.67;;
77146;SDS011;66121;52.584;9.694;2023-02-01T02:09:10;22.48;;;3.53;;
77146;SDS011;66121;52.584;9.694;2023-02-01T02:11:36;14.43;;;3.30;;
77146;SDS011;66121;52.584;9.694;2023-02-01T02:14:01;14.15;;;3.33;;
77146;SDS011;66121;52.584;9.694;2023-02-01T02:22:22;13.27;;;2.85;;
77146;SDS011;66121;52.584;9.694;2023-02-01T02:25:02;17.90;;;3.97;;
77146;SDS011;66121;52.584;9.694;2023-02-01T02:33:36;15.40;;;3.30;;
77146;SDS011;66121;52.584;9.694;2023-02-01T02:36:12;13.65;;;3.65;;
77146;SDS011;66121;52.584;9.694;2023-02-01T02:39:03;11.13;;;2.70;;
77146;SDS011;66121;52.584;9.694;2023-02-01T02:47:34;23.75;;;3.60;;
77146;SDS011;66121;52.584;9.694;2023-02-01T02:53:16;20.00;;;3.53;;
77146;SDS011;66121;52.584;9.694;2023-02-01T02:56:03;14.00;;;3.10;;
77146;SDS011;66121;52.584;9.694;2023-02-01T02:58:50;12.02;;;3.05;;
77146;SDS011;66121;52.584;9.694;2023-02-01T03:01:35;14.60;;;3.13;;
77146;SDS011;66121;52.584;9.694;2023-02-01T03:04:20;21.08;;;3.55;;
77146;SDS011;66121;52.584;9.694;2023-02-01T03:06:46;15.50;;;3.55;;
77146;SDS011;66121;52.584;9.694;2023-02-01T03:09:13;15.68;;;3.38;;
77146;SDS011;66121;52.584;9.694;2023-02-01T03:11:44;19.70;;;4.20;;
77146;SDS011;66121;52.584;9.694;2023-02-01T03:14:32;17.65;;;3.47;;
77146;SDS011;66121;52.584;9.694;2023-02-01T03:17:03;21.60;;;3.58;;
77146;SDS011;66121;52.584;9.694;2023-02-01T03:19:38;17.33;;;4.20;;
77146;SDS011;66121;52.584;9.694;2023-02-01T03:22:09;14.68;;;3.45;;
77146;SDS011;66121;52.584;9.694;2023-02-01T03:24:39;14.40;;;3.17;;
77146;SDS011;66121;52.584;9.694;2023-02-01T03:27:16;11.82;;;3.13;;
77146;SDS011;66121;52.584;9.694;2023-02-01T03:29:48;19.40;;;3.22;;
77146;SDS011;66121;52.584;9.694;2023-02-01T03:32:19;16.08;;;3.92;;
77146;SDS011;66121;52.584;9.694;2023-02-01T03:34:45;17.23;;;2.92;;
77146;SDS011;66121;52.584;9.694;2023-02-01T03:37:12;17.23;;;3.47;;
77146;SDS011;66121;52.584;9.694;2023-02-01T03:39:48;15.45;;;3.53;;
77146;SDS011;66121;52.584;9.694;2023-02-01T03:42:18;19.77;;;3.22;;
77146;SDS011;66121;52.584;9.694;2023-02-01T03:44:51;20.55;;;3.38;;
77146;SDS011;66121;52.584;9.694;2023-02-01T03:47:26;17.58;;;3.58;;
77146;SDS011;66121;52.584;9.694;2023-02-01T03:49:56;15.43;;;2.97;;
77146;SDS011;66121;52.584;9.694;2023-02-01T03:52:33;22.45;;;3.45;;
77146;SDS011;66121;52.584;9.694;2023-02-01T03:55:05;16.02;;;3.20;;
77146;SDS011;66121;52.584;9.694;2023-02-01T03:57:32;17.65;;;3.00;;
77146;SDS011;66121;52.584;9.694;2023-02-01T04:00:05;18.33;;;2.60;;
77146;SDS011;66121;52.584;9.694;2023-02-01T04:02:34;22.45;;;4.20;;
77146;SDS011;66121;52.584;9.694;2023-02-01T04:04:59;14.43;;;4.47;;
77146;SDS011;66121;52.584;9.694;2023-02-01T04:07:25;25.77;;;3.53;;
77146;SDS011;66121;52.584;9.694;2023-02-01T04:09:50;11.67;;;3.07;;
77146;SDS011;66121;52.584;9.694;2023-02-01T04:12:15;14.13;;;3.73;;
77146;SDS011;66121;52.584;9.694;2023-02-01T04:14:41;15.23;;;3.93;;
77146;SDS011;66121;52.584;9.694;2023-02-01T04:17:06;19.13;;;3.47;;
77146;SDS011;66121;52.584;9.694;2023-02-01T04:19:31;13.05;;;3.08;;
77146;SDS011;66121;52.584;9.694;2023-02-01T04:21:57;15.60;;;3.60;;
77146;SDS011;66121;52.584;9.694;2023-02-01T04:24:22;25.67;;;3.27;;
77146;SDS011;66121;52.584;9.694;2023-02-01T04:26:47;18.33;;;3.83;;
77146;SDS011;66121;52.584;9.694;2023-02-01T04:29:12;8.18;;;2.72;;
77146;SDS011;66121;52.584;9.694;2023-02-01T04:31:38;13.67;;;3.27;;
77146;SDS011;66121;52.584;9.694;2023-02-01T04:34:03;15.45;;;3.45;;
77146;SDS011;66121;52.584;9.694;2023-02-01T04:36:28;13.90;;;3.03;;
77146;SDS011;66121;52.584;9.694;2023-02-01T04:38:54;10.80;;;3.67;;
77146;SDS011;66121;52.584;9.694;2023-02-01T04:41:19;13.30;;;4.10;;
77146;SDS011;66121;52.584;9.694;2023-02-01T04:43:48;21.20;;;3.63;;
77146;SDS011;66121;52.584;9.694;2023-02-01T04:46:16;20.63;;;4.35;;
77146;SDS011;66121;52.584;9.694;2023-02-01T04:48:41;17.02;;;3.13;;
77146;SDS011;66121;52.584;9.694;2023-02-01T04:51:07;12.82;;;4.03;;
77146;SDS011;66121;52.584;9.694;2023-02-01T04:53:33;24.08;;;5.13;;
77146;SDS011;66121;52.584;9.694;2023-02-01T04:55:58;16.48;;;3.50;;
77146;SDS011;66121;52.584;9.694;2023-02-01T04:58:24;17.27;;;3.67;;
77146;SDS011;66121;52.584;9.694;2023-02-01T05:00:49;20.30;;;4.38;;
77146;SDS011;66121;52.584;9.694;2023-02-01T05:03:15;11.20;;;3.15;;
77146;SDS011;66121;52.584;9.694;2023-02-01T05:05:40;9.88;;;3.00;;
77146;SDS011;66121;52.584;9.694;2023-02-01T05:08:05;15.83;;;3.70;;
77146;SDS011;66121;52.584;9.694;2023-02-01T05:10:31;15.60;;;4.90;;
77146;SDS011;66121;52.584;9.694;2023-02-01T05:12:56;18.80;;;4.57;;
77146;SDS011;66121;52.584;9.694;2023-02-01T05:15:40;12.23;;;3.83;;
77146;SDS011;66121;52.584;9.694;2023-02-01T05:18:05;12.40;;;3.60;;
77146;SDS011;66121;52.584;9.694;2023-02-01T05:20:31;14.80;;;3.20;;
77146;SDS011;66121;52.584;9.694;2023-02-01T05:22:56;14.00;;;3.30;;
77146;SDS011;66121;52.584;9.694;2023-02-01T05:25:21;12.10;;;3.37;;
77146;SDS011;66121;52.584;9.694;2023-02-01T05:27:47;14.90;;;3.67;;
77146;SDS011;66121;52.584;9.694;2023-02-01T05:30:12;19.17;;;4.53;;
77146;SDS011;66121;52.584;9.694;2023-02-01T05:32:38;16.02;;;4.45;;
77146;SDS011;66121;52.584;9.694;2023-02-01T05:35:04;21.25;;;5.70;;
77146;SDS011;66121;52.584;9.694;2023-02-01T05:37:30;15.82;;;3.95;;
77146;SDS011;66121;52.584;9.694;2023-02-01T05:39:55;17.50;;;4.60;;
77146;SDS011;66121;52.584;9.694;2023-02-01T05:42:20;12.40;;;3.60;;
77146;SDS011;66121;52.584;9.694;2023-02-01T05:44:46;13.60;;;4.03;;
77146;SDS011;66121;52.584;9.694;2023-02-01T05:47:11;14.82;;;4.30;;
77146;SDS011;66121;52.584;9.694;2023-02-01T05:49:37;18.33;;;3.92;;
77146;SDS011;66121;52.584;9.694;2023-02-01T05:52:03;19.92;;;3.95;;
77146;SDS011;66121;52.584;9.694;2023-02-01T05:54:28;13.57;;;4.35;;
77146;SDS011;66121;52.584;9.694;2023-02-01T05:56:54;10.32;;;3.13;;
77146;SDS011;66121;52.584;9.694;2023-02-01T05:59:19;18.63;;;4.03;;
77146;SDS011;66121;52.584;9.694;2023-02-01T06:01:44;22.58;;;4.07;;
77146;SDS011;66121;52.584;9.694;2023-02-01T06:04:10;14.77;;;3.65;;
77146;SDS011;66121;52.584;9.694;2023-02-01T06:06:35;14.73;;;4.57;;
77146;SDS011;66121;52.584;9.694;2023-02-01T06:09:02;20.30;;;3.65;;
77146;SDS011;66121;52.584;9.694;2023-02-01T06:11:27;18.95;;;4.60;;
77146;SDS011;66121;52.584;9.694;2023-02-01T06:13:53;18.13;;;3.88;;
77146;SDS011;66121;52.584;9.694;2023-02-01T06:16:20;13.73;;;4.40;;
77146;SDS011;66121;52.584;9.694;2023-02-01T06:18:45;23.30;;;5.68;;
77146;SDS011;66121;52.584;9.694;2023-02-01T06:21:11;15.53;;;5.17;;
77146;SDS011;66121;52.584;9.694;2023-02-01T06:23:38;12.48;;;4.05;;
77146;SDS011;66121;52.584;9.694;2023-02-01T06:26:04;13.82;;;4.25;;
77146;SDS011;66121;52.584;9.694;2023-02-01T06:28:31;11.43;;;4.10;;
77146;SDS011;66121;52.584;9.694;2023-02-01T06:30:57;13.88;;;4.30;;
77146;SDS011;66121;52.584;9.694;2023-02-01T06:33:24;13.02;;;4.15;;
77146;SDS011;66121;52.584;9.694;2023-02-01T06:35:56;18.20;;;5.30;;
77146;SDS011;66121;52.584;9.694;2023-02-01T06:38:23;9.90;;;3.63;;
77146;SDS011;66121;52.584;9.694;2023-02-01T06:40:51;16.55;;;4.55;;
77146;SDS011;66121;52.584;9.694;2023-02-01T06:43:22;7.40;;;3.00;;
77146;SDS011;66121;52.584;9.694;2023-02-01T06:45:48;9.90;;;3.33;;
77146;SDS011;66121;52.584;9.694;2023-02-01T06:48:14;8.18;;;3.55;;
77146;SDS011;66121;52.584;9.694;2023-02-01T06:50:39;14.07;;;3.70;;
77146;SDS011;66121;52.584;9.694;2023-02-01T06:53:04;8.77;;;3.70;;
77146;SDS011;66121;52.584;9.694;2023-02-01T06:55:30;9.80;;;4.13;;
77146;SDS011;66121;52.584;9.694;2023-02-01T06:57:55;12.60;;;3.50;;
77146;SDS011;66121;52.584;9.694;2023-02-01T07:00:23;14.38;;;3.58;;
77146;SDS011;66121;52.584;9.694;2023-02-01T07:02:49;16.88;;;4.28;;
77146;SDS011;66121;52.584;9.694;2023-02-01T07:05:15;13.77;;;3.85;;
77146;SDS011;66121;52.584;9.694;2023-02-01T07:07:41;16.65;;;4.28;;
77146;SDS011;66121;52.584;9.694;2023-02-01T07:10:07;17.45;;;5.65;;
77146;SDS011;66121;52.584;9.694;2023-02-01T07:12:33;16.60;;;5.15;;
77146;SDS011;66121;52.584;9.694;2023-02-01T07:14:58;27.67;;;5.90;;
77146;SDS011;66121;52.584;9.694;2023-02-01T07:17:23;22.15;;;5.90;;
77146;SDS011;66121;52.584;9.694;2023-02-01T07:19:49;11.80;;;4.85;;
77146;SDS011;66121;52.584;9.694;2023-02-01T07:22:17;25.02;;;5.47;;
77146;SDS011;66121;52.584;9.694;2023-02-01T07:24:42;21.13;;;4.55;;
77146;SDS011;66121;52.584;9.694;2023-02-01T07:27:08;22.90;;;5.17;;
77146;SDS011;66121;52.584;9.694;2023-02-01T07:29:33;19.00;;;4.70;;
77146;SDS011;66121;52.584;9.694;2023-02-01T07:31:58;15.87;;;4.57;;
77146;SDS011;66121;52.584;9.694;2023-02-01T07:34:25;19.67;;;4.28;;
77146;SDS011;66121;52.584;9.694;2023-02-01T07:36:50;15.25;;;4.28;;
77146;SDS011;66121;52.584;9.694;2023-02-01T07:39:16;15.83;;;4.40;;
77146;SDS011;66121;52.584;9.694;2023-02-01T07:41:41;14.10;;;3.97;;
77146;SDS011;66121;52.584;9.694;2023-02-01T07:44:06;12.37;;;3.67;;
77146;SDS011;66121;52.584;9.694;2023-02-01T07:46:31;17.73;;;4.17;;
77146;SDS011;66121;52.584;9.694;2023-02-01T07:48:57;19.33;;;5.30;;
77146;SDS011;66121;52.584;9.694;2023-02-01T07:51:22;18.77;;;5.07;;
77146;SDS011;66121;52.584;9.694;2023-02-01T07:53:47;13.00;;;4.30;;
77146;SDS011;66121;52.584;9.694;2023-02-01T07:56:17;4.20;;;2.03;;
77146;SDS011;66121;52.584;9.694;2023-02-01T07:58:46;7.25;;;2.22;;
77146;SDS011;66121;52.584;9.694;2023-02-01T08:01:13;9.75;;;2.45;;
77146;SDS011;66121;52.584;9.694;2023-02-01T08:03:59;6.55;;;2.40;;
77146;SDS011;66121;52.584;9.694;2023-02-01T08:06:26;6.72;;;1.85;;
77146;SDS011;66121;52.584;9.694;2023-02-01T08:08:53;6.70;;;2.38;;
77146;SDS011;66121;52.584;9.694;2023-02-01T08:11:19;3.47;;;1.60;;
77146;SDS011;66121;52.584;9.694;2023-02-01T08:13:46;5.68;;;2.13;;
77146;SDS011;66121;52.584;9.694;2023-02-01T08:16:12;7.25;;;2.42;;
77146;SDS011;66121;52.584;9.694;2023-02-01T08:18:40;7.57;;;2.70;;
77146;SDS011;66121;52.584;9.694;2023-02-01T08:21:07;6.40;;;2.70;;
77146;SDS011;66121;52.584;9.694;2023-02-01T08:23:37;9.50;;;3.42;;
77146;SDS011;66121;52.584;9.694;2023-02-01T08:26:11;10.40;;;3.70;;
77146;SDS011;66121;52.584;9.694;2023-02-01T08:28:40;15.55;;;3.47;;
77146;SDS011;66121;52.584;9.694;2023-02-01T08:31:09;16.80;;;3.95;;
77146;SDS011;66121;52.584;9.694;2023-02-01T08:33:36;16.10;;;4.43;;
77146;SDS011;66121;52.584;9.694;2023-02-01T08:36:03;15.20;;;3.70;;
77146;SDS011;66121;52.584;9.694;2023-02-01T08:38:29;16.13;;;4.28;;
77146;SDS011;66121;52.584;9.694;2023-02-01T08:40:55;14.43;;;3.97;;
77146;SDS011;66121;52.584;9.694;2023-02-01T08:43:20;14.38;;;3.80;;
77146;SDS011;66121;52.584;9.694;2023-02-01T08:45:46;17.10;;;4.25;;
77146;SDS011;66121;52.584;9.694;2023-02-01T08:48:11;17.08;;;3.58;;
77146;SDS011;66121;52.584;9.694;2023-02-01T08:50:36;14.02;;;3.28;;
77146;SDS011;66121;52.584;9.694;2023-02-01T08:53:02;18.90;;;4.47;;
77146;SDS011;66121;52.584;9.694;2023-02-01T08:55:27;20.67;;;4.90;;
77146;SDS011;66121;52.584;9.694;2023-02-01T08:57:53;13.88;;;3.63;;
77146;SDS011;66121;52.584;9.694;2023-02-01T09:00:18;15.53;;;3.67;;
77146;SDS011;66121;52.584;9.694;2023-02-01T09:02:44;12.98;;;3.60;;
77146;SDS011;66121;52.584;9.694;2023-02-01T09:05:10;19.00;;;3.75;;
77146;SDS011;66121;52.584;9.694;2023-02-01T09:07:35;15.45;;;3.55;;
77146;SDS011;66121;52.584;9.694;2023-02-01T09:10:01;18.23;;;3.80;;
77146;SDS011;66121;52.584;9.694;2023-02-01T09:12:28;15.88;;;3.22;;
77146;SDS011;66121;52.584;9.694;2023-02-01T09:14:57;10.32;;;2.55;;
77146;SDS011;66121;52.584;9.694;2023-02-01T09:17:24;13.23;;;2.90;;
77146;SDS011;66121;52.584;9.694;2023-02-01T09:19:53;12.20;;;3.08;;
77146;SDS011;66121;52.584;9.694;2023-02-01T09:22:18;17.40;;;4.03;;
77146;SDS011;66121;52.584;9.694;2023-02-01T09:24:44;13.68;;;3.10;;
77146;SDS011;66121;52.584;9.694;2023-02-01T09:27:10;16.52;;;3.40;;
77146;SDS011;66121;52.584;9.694;2023-02-01T09:29:35;15.93;;;4.05;;
77146;SDS011;66121;52.584;9.694;2023-02-01T09:32:00;18.27;;;3.87;;
77146;SDS011;66121;52.584;9.694;2023-02-01T09:34:26;15.70;;;2.92;;
77146;SDS011;66121;52.584;9.694;2023-02-01T09:36:51;9.97;;;2.60;;
77146;SDS011;66121;52.584;9.694;2023-02-01T09:39:16;16.57;;;3.40;;
77146;SDS011;66121;52.584;9.694;2023-02-01T09:41:56;18.73;;;3.20;;
77146;SDS011;66121;52.584;9.694;2023-02-01T09:46:58;10.00;;;3.10;;
77146;SDS011;66121;52.584;9.694;2023-02-01T09:49:32;11.63;;;3.47;;
77146;SDS011;66121;52.584;9.694;2023-02-01T09:52:02;9.75;;;2.80;;
77146;SDS011;66121;52.584;9.694;2023-02-01T09:54:49;11.50;;;3.30;;
77146;SDS011;66121;52.584;9.694;2023-02-01T09:57:26;14.25;;;3.30;;
77146;SDS011;66121;52.584;9.694;2023-02-01T10:00:03;11.38;;;3.03;;
77146;SDS011;66121;52.584;9.694;2023-02-01T10:02:32;8.52;;;2.85;;
77146;SDS011;66121;52.584;9.694;2023-02-01T10:05:04;14.88;;;3.33;;
77146;SDS011;66121;52.584;9.694;2023-02-01T10:07:33;17.15;;;3.60;;
77146;SDS011;66121;52.584;9.694;2023-02-01T10:10:17;19.60;;;4.63;;
77146;SDS011;66121;52.584;9.694;2023-02-01T10:13:03;17.58;;;3.75;;
77146;SDS011;66121;52.584;9.694;2023-02-01T10:16:02;17.60;;;6.13;;
77146;SDS011;66121;52.584;9.694;2023-02-01T10:18:38;20.83;;;5.20;;
77146;SDS011;66121;52.584;9.694;2023-02-01T10:27:08;17.23;;;3.70;;
77146;SDS011;66121;52.584;9.694;2023-02-01T10:29:39;15.15;;;3.22;;
77146;SDS011;66121;52.584;9.694;2023-02-01T10:32:14;14.85;;;3.58;;
77146;SDS011;66121;52.584;9.694;2023-02-01T10:34:41;15.27;;;3.58;;
77146;SDS011;66121;52.584;9.694;2023-02-01T10:37:30;17.45;;;4.07;;
77146;SDS011;66121;52.584;9.694;2023-02-01T10:40:18;14.82;;;4.47;;
77146;SDS011;66121;52.584;9.694;2023-02-01T10:42:47;12.02;;;3.15;;
77146;SDS011;66121;52.584;9.694;2023-02-01T10:45:15;12.75;;;4.03;;
77146;SDS011;66121;52.584;9.694;2023-02-01T10:47:44;10.60;;;3.05;;
77146;SDS011;66121;52.584;9.694;2023-02-01T10:50:15;15.02;;;2.88;;
77146;SDS011;66121;52.584;9.694;2023-02-01T10:53:04;13.30;;;3.30;;
77146;SDS011;66121;52.584;9.694;2023-02-01T10:55:39;11.75;;;3.67;;
77146;SDS011;66121;52.584;9.694;2023-02-01T10:58:07;12.23;;;3.22;;
77146;SDS011;66121;52.584;9.694;2023-02-01T11:01:23;13.57;;;3.60;;
77146;SDS011;66121;52.584;9.694;2023-02-01T11:05:59;21.42;;;3.85;;
77146;SDS011;66121;52.584;9.694;2023-02-01T11:08:26;16.17;;;3.28;;
77146;SDS011;66121;52.584;9.694;2023-02-01T11:11:02;14.23;;;3.00;;
77146;SDS011;66121;52.584;9.694;2023-02-01T11:13:31;12.05;;;3.20;;
77146;SDS011;66121;52.584;9.694;2023-02-01T11:16:02;18.13;;;3.50;;
77146;SDS011;66121;52.584;9.694;2023-02-01T11:18:29;13.98;;;4.25;;
77146;SDS011;66121;52.584;9.694;2023-02-01T11:21:01;15.40;;;3.20;;
77146;SDS011;66121;52.584;9.694;2023-02-01T11:23:27;13.35;;;4.10;;
77146;SDS011;66121;52.584;9.694;2023-02-01T11:25:59;13.20;;;3.67;;
77146;SDS011;66121;52.584;9.694;2023-02-01T11:28:32;13.23;;;3.13;;
77146;SDS011;66121;52.584;9.694;2023-02-01T11:31:02;17.08;;;3.80;;
77146;SDS011;66121;52.584;9.694;2023-02-01T11:33:34;11.80;;;2.83;;
77146;SDS011;66121;52.584;9.694;2023-02-01T11:36:08;12.88;;;3.20;;
77146;SDS011;66121;52.584;9.694;2023-02-01T11:38:46;16.45;;;3.00;;
77146;SDS011;66121;52.584;9.694;2023-02-01T11:41:25;9.73;;;3.25;;
77146;SDS011;66121;52.584;9.694;2023-02-01T11:43:59;9.40;;;2.83;;
77146;SDS011;66121;52.584;9.694;2023-02-01T11:46:32;8.13;;;3.28;;
77146;SDS011;66121;52.584;9.694;2023-02-01T11:51:50;10.38;;;2.55;;
77146;SDS011;66121;52.584;9.694;2023-02-01T11:54:54;11.18;;;3.20;;
77146;SDS011;66121;52.584;9.694;2023-02-01T12:05:59;15.03;;;3.67;;
77146;SDS011;66121;52.584;9.694;2023-02-01T12:19:36;15.45;;;4.15;;
77146;SDS011;66121;52.584;9.694;2023-02-01T12:22:32;9.30;;;3.88;;
77146;SDS011;66121;52.584;9.694;2023-02-01T12:28:27;9.20;;;3.70;;
77146;SDS011;66121;52.584;9.694;2023-02-01T12:31:35;16.25;;;3.35;;
77146;SDS011;66121;52.584;9.694;2023-02-01T12:39:23;13.50;;;3.97;;
77146;SDS011;66121;52.584;9.694;2023-02-01T12:42:03;19.95;;;3.80;;
77146;SDS011;66121;52.584;9.694;2023-02-01T12:44:40;13.70;;;3.53;;
77146;SDS011;66121;52.584;9.694;2023-02-01T12:49:45;16.80;;;3.90;;
77146;SDS011;66121;52.584;9.694;2023-02-01T12:52:16;8.23;;;3.25;;
77146;SDS011;66121;52.584;9.694;2023-02-01T12:58:06;14.63;;;4.13;;
77146;SDS011;66121;52.584;9.694;2023-02-01T13:00:44;10.85;;;2.95;;
77146;SDS011;66121;52.584;9.694;2023-02-01T13:08:22;13.32;;;3.22;;
77146;SDS011;66121;52.584;9.694;2023-02-01T13:10:57;6.47;;;2.90;;
77146;SDS011;66121;52.584;9.694;2023-02-01T13:13:39;7.47;;;2.20;;
77146;SDS011;66121;52.584;9.694;2023-02-01T13:16:25;5.10;;;2.25;;
77146;SDS011;66121;52.584;9.694;2023-02-01T13:19:13;8.60;;;2.63;;
77146;SDS011;66121;52.584;9.694;2023-02-01T13:21:45;6.22;;;2.40;;
77146;SDS011;66121;52.584;9.694;2023-02-01T13:24:29;3.45;;;1.73;;
77146;SDS011;66121;52.584;9.694;2023-02-01T13:27:00;4.60;;;1.88;;
77146;SDS011;66121;52.584;9.694;2023-02-01T13:29:26;4.32;;;1.63;;
77146;SDS011;66121;52.584;9.694;2023-02-01T13:34:32;3.83;;;1.30;;
77146;SDS011;66121;52.584;9.694;2023-02-01T13:37:18;4.82;;;1.90;;
77146;SDS011;66121;52.584;9.694;2023-02-01T13:43:33;3.15;;;1.65;;
77146;SDS011;66121;52.584;9.694;2023-02-01T13:45:45;2.75;;;1.27;;
77146;SDS011;66121;52.584;9.694;2023-02-01T13:49:18;1.63;;;1.13;;
77146;SDS011;66121;52.584;9.694;2023-02-01T13:51:15;0.80;;;0.80;;
77146;SDS011;66121;52.584;9.694;2023-02-01T13:53:54;1.75;;;0.90;;
77146;SDS011;66121;52.584;9.694;2023-02-01T13:56:20;0.85;;;0.85;;
77146;SDS011;66121;52.584;9.694;2023-02-01T13:58:49;0.68;;;0.50;;
77146;SDS011;66121;52.584;9.694;2023-02-01T14:03:49;0.77;;;0.70;;
77146;SDS011;66121;52.584;9.694;2023-02-01T14:06:17;0.70;;;0.70;;
77146;SDS011;66121;52.584;9.694;2023-02-01T14:11:40;2.05;;;0.70;;
77146;SDS011;66121;52.584;9.694;2023-02-01T14:16:40;5.32;;;1.08;;
77146;SDS011;66121;52.584;9.694;2023-02-01T14:19:18;2.38;;;0.90;;
77146;SDS011;66121;52.584;9.694;2023-02-01T14:21:52;2.03;;;0.90;;
77146;SDS011;66121;52.584;9.694;2023-02-01T14:26:57;5.78;;;1.20;;
77146;SDS011;66121;52.584;9.694;2023-02-01T14:29:58;2.10;;;1.20;;
77146;SDS011;66121;52.584;9.694;2023-02-01T14:32:30;3.45;;;1.10;;
77146;SDS011;66121;52.584;9.694;2023-02-01T14:37:32;1.48;;;0.80;;
77146;SDS011;66121;52.584;9.694;2023-02-01T14:40:04;2.28;;;1.23;;
77146;SDS011;66121;52.584;9.694;2023-02-01T14:42:51;3.58;;;1.27;;
77146;SDS011;66121;52.584;9.694;2023-02-01T14:47:48;4.65;;;1.33;;
77146;SDS011;66121;52.584;9.694;2023-02-01T15:14:43;4.75;;;1.80;;
77146;SDS011;66121;52.584;9.694;2023-02-01T15:17:20;4.95;;;1.50;;
77146;SDS011;66121;52.584;9.694;2023-02-01T15:19:54;4.13;;;1.20;;
77146;SDS011;66121;52.584;9.694;2023-02-01T15:22:20;5.97;;;1.20;;
77146;SDS011;66121;52.584;9.694;2023-02-01T15:24:51;2.97;;;1.20;;
77146;SDS011;66121;52.584;9.694;2023-02-01T15:27:19;3.35;;;1.20;;
77146;SDS011;66121;52.584;9.694;2023-02-01T15:29:45;6.28;;;1.40;;
77146;SDS011;66121;52.584;9.694;2023-02-01T15:32:27;5.35;;;1.90;;
77146;SDS011;66121;52.584;9.694;2023-02-01T15:34:56;4.40;;;1.50;;
77146;SDS011;66121;52.584;9.694;2023-02-01T15:37:23;7.50;;;1.63;;
77146;SDS011;66121;52.584;9.694;2023-02-01T15:42:46;4.60;;;1.88;;
77146;SDS011;66121;52.584;9.694;2023-02-01T15:45:16;6.18;;;1.55;;
77146;SDS011;66121;52.584;9.694;2023-02-01T15:47:46;10.45;;;2.05;;
77146;SDS011;66121;52.584;9.694;2023-02-01T15:50:15;6.28;;;1.90;;
77146;SDS011;66121;52.584;9.694;2023-02-01T15:52:41;4.07;;;1.42;;
77146;SDS011;66121;52.584;9.694;2023-02-01T15:55:50;8.32;;;2.35;;
77146;SDS011;66121;52.584;9.694;2023-02-01T15:58:04;6.15;;;1.60;;
77146;SDS011;66121;52.584;9.694;2023-02-01T16:00:31;6.88;;;2.00;;
77146;SDS011;66121;52.584;9.694;2023-02-01T16:03:21;11.35;;;2.30;;
77146;SDS011;66121;52.584;9.694;2023-02-01T16:05:55;11.15;;;2.30;;
77146;SDS011;66121;52.584;9.694;2023-02-01T16:08:24;10.07;;;2.33;;
77146;SDS011;66121;52.584;9.694;2023-02-01T16:10:52;7.13;;;1.80;;
77146;SDS011;66121;52.584;9.694;2023-02-01T16:13:37;9.25;;;2.10;;
77146;SDS011;66121;52.584;9.694;2023-02-01T16:16:03;3.60;;;1.83;;
77146;SDS011;66121;52.584;9.694;2023-02-01T16:18:41;17.17;;;2.75;;
77146;SDS011;66121;52.584;9.694;2023-02-01T16:21:07;13.65;;;2.53;;
77146;SDS011;66121;52.584;9.694;2023-02-01T16:23:34;8.68;;;2.17;;
77146;SDS011;66121;52.584;9.694;2023-02-01T16:26:00;11.00;;;2.55;;
77146;SDS011;66121;52.584;9.694;2023-02-01T16:28:25;16.92;;;3.20;;
77146;SDS011;66121;52.584;9.694;2023-02-01T16:30:51;12.93;;;3.13;;
77146;SDS011;66121;52.584;9.694;2023-02-01T16:33:18;9.32;;;2.45;;
77146;SDS011;66121;52.584;9.694;2023-02-01T16:35:46;10.18;;;2.15;;
77146;SDS011;66121;52.584;9.694;2023-02-01T16:38:13;10.10;;;2.92;;
77146;SDS011;66121;52.584;9.694;2023-02-01T16:40:43;13.90;;;2.55;;
77146;SDS011;66121;52.584;9.694;2023-02-01T16:43:14;8.90;;;2.40;;
77146;SDS011;66121;52.584;9.694;2023-02-01T16:45:40;13.45;;;3.05;;
77146;SDS011;66121;52.584;9.694;2023-02-01T16:48:10;14.63;;;2.88;;
77146;SDS011;66121;52.584;9.694;2023-02-01T16:50:50;12.68;;;2.78;;
77146;SDS011;66121;52.584;9.694;2023-02-01T16:53:18;10.43;;;2.47;;
77146;SDS011;66121;52.584;9.694;2023-02-01T16:55:44;22.25;;;9.35;;
77146;SDS011;66121;52.584;9.694;2023-02-01T16:58:11;10.48;;;3.72;;